createdAt,value
2018-11-26T00:00:46.986Z,94.87
2018-11-26T00:03:15.990Z,94.52
2018-11-26T00:05:44.561Z,94.29
2018-11-26T00:08:13.736Z,95.08
2018-11-26T00:11:01.498Z,94.93
2018-11-26T00:13:30.036Z,94.56
2018-11-26T00:15:58.616Z,94.77
2018-11-26T00:18:27.259Z,94.92
2018-11-26T00:20:55.781Z,94.54
2018-11-26T00:23:24.307Z,95.33
2018-11-26T00:25:52.875Z,95.28
2018-11-26T00:28:21.524Z,94.94
2018-11-26T00:30:50.107Z,94.70
2018-11-26T00:33:18.686Z,94.71
2018-11-26T00:35:47.316Z,94.12
2018-11-26T00:38:15.844Z,93.98
2018-11-26T00:40:44.393Z,94.51
2018-11-26T01:07:04.621Z,93.32
2018-11-26T01:09:33.180Z,92.27
2018-11-26T01:12:01.780Z,92.67
2018-11-26T01:14:30.543Z,92.36
2018-11-26T01:16:59.140Z,92.35
2018-11-26T01:19:28.038Z,91.57
2018-11-26T01:21:56.609Z,92.30
2018-11-26T01:24:31.811Z,91.93
2018-11-26T01:27:00.401Z,91.45
2018-11-26T01:29:28.932Z,92.28
2018-11-26T01:31:57.485Z,92.32
2018-11-26T01:34:26.071Z,91.76
2018-11-26T01:36:54.615Z,91.47
2018-11-26T01:39:23.156Z,92.11
2018-11-26T01:41:51.732Z,92.03
2018-11-26T01:44:20.279Z,92.39
2018-11-26T01:46:48.801Z,92.33
2018-11-26T01:49:17.449Z,92.46
2018-11-26T01:51:45.966Z,92.25
2018-11-26T01:54:14.490Z,91.70
2018-11-26T01:56:43.082Z,92.45
2018-11-26T01:59:11.622Z,92.42
2018-11-26T02:01:40.135Z,92.31
2018-11-26T02:04:08.739Z,92.40
2018-11-26T02:06:37.287Z,92.34
2018-11-26T02:09:06.372Z,91.90
2018-11-26T02:11:34.931Z,91.50
2018-11-26T02:14:03.490Z,91.60
2018-11-26T02:16:32.052Z,91.78
2018-11-26T02:19:00.636Z,92.30
2018-11-26T02:21:29.195Z,91.82
2018-11-26T02:23:57.719Z,91.51
2018-11-26T02:26:26.290Z,92.36
2018-11-26T02:28:54.808Z,91.63
2018-11-26T02:31:23.346Z,91.78
2018-11-26T02:33:52.198Z,91.98
2018-11-26T02:36:20.749Z,91.80
2018-11-26T02:38:49.331Z,91.53
2018-11-26T02:41:17.922Z,91.25
2018-11-26T02:43:46.515Z,90.73
2018-11-26T02:46:15.050Z,91.12
2018-11-26T02:48:43.650Z,91.03
2018-11-26T02:51:12.238Z,91.14
2018-11-26T02:53:40.775Z,90.22
2018-11-26T02:56:09.343Z,90.58
2018-11-26T02:58:37.887Z,90.08
2018-11-26T03:01:06.989Z,90.88
2018-11-26T03:03:35.555Z,90.28
2018-11-26T03:06:04.098Z,90.47
2018-11-26T03:08:32.711Z,90.98
2018-11-26T03:11:01.327Z,90.26
2018-11-26T03:13:29.854Z,90.83
2018-11-26T03:15:58.381Z,91.06
2018-11-26T03:18:26.939Z,90.68
2018-11-26T03:20:55.511Z,90.51
2018-11-26T03:23:24.141Z,90.57
2018-11-26T03:25:52.729Z,90.37
2018-11-26T03:28:21.257Z,90.25
2018-11-26T03:30:49.779Z,90.47
2018-11-26T03:33:18.427Z,90.33
2018-11-26T03:35:46.949Z,90.63
2018-11-26T03:38:17.194Z,90.13
2018-11-26T03:40:45.902Z,90.29
2018-11-26T03:43:14.470Z,90.79
2018-11-26T03:45:43.011Z,90.54
2018-11-26T03:48:11.608Z,90.64
2018-11-26T03:50:40.143Z,91.21
2018-11-26T03:53:08.730Z,90.80
2018-11-26T03:55:37.314Z,90.98
2018-11-26T03:58:05.870Z,90.67
2018-11-26T04:00:34.390Z,90.59
2018-11-26T04:03:02.943Z,91.43
2018-11-26T04:05:31.485Z,91.33
2018-11-26T04:08:00.013Z,91.58
2018-11-26T04:10:28.574Z,90.93
2018-11-26T04:12:57.156Z,91.45
2018-11-26T04:15:25.732Z,91.44
2018-11-26T04:17:54.306Z,91.10
2018-11-26T04:20:22.829Z,91.05
2018-11-26T04:22:51.352Z,91.16
2018-11-26T04:25:19.915Z,90.64
2018-11-26T04:27:48.473Z,91.09
2018-11-26T04:30:17.025Z,90.73
2018-11-26T04:32:45.654Z,90.79
2018-11-26T04:35:14.183Z,91.39
2018-11-26T04:37:42.726Z,91.86
2018-11-26T04:40:11.329Z,91.14
2018-11-26T04:42:39.846Z,91.38
2018-11-26T04:45:09.560Z,91.21
2018-11-26T04:47:38.423Z,92.21
2018-11-26T04:50:09.200Z,91.76
2018-11-26T04:52:37.767Z,92.29
2018-11-26T04:55:06.735Z,92.43
2018-11-26T04:57:35.619Z,92.06
2018-11-26T05:00:04.646Z,92.09
2018-11-26T05:02:33.222Z,91.68
2018-11-26T05:05:01.810Z,92.11
2018-11-26T05:07:30.337Z,92.23
2018-11-26T05:09:58.935Z,91.92
2018-11-26T05:12:27.497Z,92.36
2018-11-26T05:14:56.061Z,92.43
2018-11-26T05:17:24.713Z,92.08
2018-11-26T05:19:53.287Z,92.03
2018-11-26T05:22:21.814Z,90.97
2018-11-26T05:24:50.377Z,91.10
2018-11-26T05:27:18.934Z,90.84
2018-11-26T05:29:47.594Z,90.56
2018-11-26T05:32:16.163Z,90.91
2018-11-26T05:34:44.683Z,90.36
2018-11-26T05:37:13.239Z,91.11
2018-11-26T05:39:41.812Z,90.70
2018-11-26T05:42:10.399Z,90.87
2018-11-26T05:44:39.014Z,90.96
2018-11-26T05:47:07.622Z,90.61
2018-11-26T05:49:36.165Z,91.08
2018-11-26T05:52:04.694Z,90.80
2018-11-26T05:54:33.275Z,90.92
2018-11-26T05:57:01.861Z,91.61
2018-11-26T05:59:30.393Z,90.93
2018-11-26T06:01:58.992Z,91.39
2018-11-26T06:04:27.591Z,91.10
2018-11-26T06:06:56.115Z,91.42
2018-11-26T06:09:24.726Z,90.56
2018-11-26T06:11:53.246Z,91.20
2018-11-26T06:14:21.803Z,90.79
2018-11-26T06:16:53.805Z,91.00
2018-11-26T06:19:18.962Z,90.62
2018-11-26T06:21:47.833Z,90.78
2018-11-26T06:24:16.397Z,90.53
2018-11-26T06:26:44.927Z,90.64
2018-11-26T06:29:13.446Z,90.10
2018-11-26T06:31:42.052Z,90.94
2018-11-26T06:34:10.570Z,90.55
2018-11-26T06:36:39.343Z,90.56
2018-11-26T06:39:09.581Z,90.24
2018-11-26T06:41:38.375Z,90.58
2018-11-26T06:44:07.614Z,89.53
2018-11-26T06:46:36.162Z,90.21
2018-11-26T06:49:04.706Z,89.58
2018-11-26T06:51:33.254Z,89.92
2018-11-26T06:54:01.851Z,90.70
2018-11-26T06:56:30.388Z,89.80
2018-11-26T06:58:59.030Z,90.12
2018-11-26T07:01:27.601Z,89.89
2018-11-26T07:03:56.138Z,90.16
2018-11-26T07:06:24.663Z,90.83
2018-11-26T07:08:53.596Z,90.72
2018-11-26T07:11:22.131Z,89.98
2018-11-26T07:13:50.698Z,90.25
2018-11-26T07:16:19.322Z,89.80
2018-11-26T07:18:47.846Z,90.30
2018-11-26T07:21:16.446Z,89.32
2018-11-26T07:23:45.013Z,90.26
2018-11-26T07:26:13.622Z,89.77
2018-11-26T07:28:42.139Z,89.03
2018-11-26T07:31:10.707Z,89.64
2018-11-26T07:33:39.228Z,89.39
2018-11-26T07:36:11.443Z,89.79
2018-11-26T07:38:36.769Z,88.99
2018-11-26T07:41:05.564Z,89.60
2018-11-26T07:43:34.134Z,89.80
2018-11-26T07:46:02.782Z,89.11
2018-11-26T07:48:31.303Z,89.24
2018-11-26T07:50:59.850Z,89.63
2018-11-26T07:53:28.434Z,89.84
2018-11-26T07:55:57.010Z,89.93
2018-11-26T07:58:25.562Z,90.09
2018-11-26T08:00:54.255Z,90.50
2018-11-26T08:03:22.838Z,90.13
2018-11-26T08:05:51.360Z,90.17
2018-11-26T08:08:19.940Z,89.62
2018-11-26T08:10:48.466Z,89.20
2018-11-26T08:13:17.031Z,89.55
2018-11-26T08:15:45.647Z,89.28
2018-11-26T08:18:14.210Z,89.55
2018-11-26T08:20:42.738Z,89.38
2018-11-26T08:23:11.286Z,89.14
2018-11-26T08:25:39.862Z,88.08
2018-11-26T08:28:08.483Z,88.07
2018-11-26T08:30:37.021Z,88.79
2018-11-26T08:33:06.367Z,89.09
2018-11-26T08:35:35.002Z,89.32
2018-11-26T08:38:13.659Z,89.70
2018-11-26T08:40:43.228Z,89.79
2018-11-26T08:43:17.065Z,90.35
2018-11-26T08:45:53.538Z,89.78
2018-11-26T08:48:31.273Z,89.28
2018-11-26T08:51:01.246Z,89.59
2018-11-26T08:53:29.916Z,89.27
2018-11-26T08:55:58.692Z,89.25
2018-11-26T08:58:27.281Z,88.94
2018-11-26T09:01:01.471Z,88.25
2018-11-26T09:03:36.038Z,86.83
2018-11-26T09:06:05.478Z,86.29
2018-11-26T09:08:35.288Z,85.93
2018-11-26T09:11:04.808Z,85.55
2018-11-26T09:13:33.329Z,85.36
2018-11-26T09:16:01.863Z,84.27
2018-11-26T09:18:30.435Z,83.80
2018-11-26T09:20:59.013Z,83.68
2018-11-26T09:23:27.574Z,83.95
2018-11-26T09:25:56.230Z,84.13
2018-11-26T09:28:24.925Z,83.95
2018-11-26T09:30:53.507Z,83.95
2018-11-26T09:33:22.234Z,83.97
2018-11-26T09:35:50.762Z,84.48
2018-11-26T09:38:19.340Z,85.53
2018-11-26T09:40:47.922Z,84.90
2018-11-26T09:43:16.442Z,85.79
2018-11-26T09:45:44.992Z,85.14
2018-11-26T09:48:13.532Z,85.74
2018-11-26T09:50:42.399Z,85.53
2018-11-26T09:53:10.940Z,85.17
2018-11-26T09:55:39.458Z,84.35
2018-11-26T09:58:08.003Z,84.30
2018-11-26T10:00:36.526Z,84.32
2018-11-26T10:03:05.480Z,83.72
2018-11-26T10:05:34.583Z,82.55
2018-11-26T10:08:03.102Z,82.47
2018-11-26T10:10:31.667Z,82.36
2018-11-26T10:13:00.194Z,82.94
2018-11-26T10:15:28.803Z,81.61
2018-11-26T10:17:57.318Z,81.41
2018-11-26T10:20:25.844Z,80.94
2018-11-26T10:22:54.692Z,80.45
2018-11-26T10:25:23.777Z,80.19
2018-11-26T10:27:52.309Z,79.91
2018-11-26T10:30:23.372Z,80.20
2018-11-26T10:32:52.165Z,80.82
2018-11-26T10:35:21.170Z,81.53
2018-11-26T10:37:49.845Z,81.89
2018-11-26T10:40:25.531Z,82.51
2018-11-26T10:42:54.130Z,82.71
2018-11-26T10:45:23.592Z,82.24
2018-11-26T10:47:52.148Z,81.22
2018-11-26T10:50:23.182Z,81.56
2018-11-26T10:52:55.054Z,80.92
2018-11-26T10:55:26.350Z,80.80
2018-11-26T10:57:54.829Z,80.84
2018-11-26T11:00:28.766Z,81.13
2018-11-26T11:02:57.770Z,80.57
2018-11-26T11:05:26.301Z,81.36
2018-11-26T11:07:55.017Z,81.13
2018-11-26T11:10:25.418Z,80.49
2018-11-26T11:12:53.962Z,80.92
2018-11-26T11:15:22.874Z,80.33
2018-11-26T11:17:51.377Z,79.59
2018-11-26T11:20:21.060Z,79.39
2018-11-26T11:22:49.595Z,79.69
2018-11-26T11:25:18.764Z,79.05
2018-11-26T11:27:47.840Z,79.16
2018-11-26T11:30:21.739Z,79.76
2018-11-26T11:32:50.303Z,80.16
2018-11-26T11:35:19.036Z,80.10
2018-11-26T11:37:48.860Z,78.97
2018-11-26T11:40:21.016Z,78.81
2018-11-26T11:42:49.571Z,79.92
2018-11-26T11:45:18.343Z,80.29
2018-11-26T11:47:46.894Z,79.62
2018-11-26T11:50:16.862Z,79.28
2018-11-26T11:52:45.611Z,79.17
2018-11-26T11:55:17.047Z,79.05
2018-11-26T11:57:45.582Z,78.87
2018-11-26T12:00:18.852Z,79.62
2018-11-26T12:02:47.375Z,79.12
2018-11-26T12:05:16.333Z,79.39
2018-11-26T12:07:45.007Z,79.34
2018-11-26T12:10:13.937Z,79.40
2018-11-26T12:12:42.471Z,79.49
2018-11-26T12:15:12.423Z,79.01
2018-11-26T12:17:41.186Z,78.87
2018-11-26T12:20:11.127Z,78.38
2018-11-26T12:22:39.760Z,78.53
2018-11-26T12:25:10.192Z,78.76
2018-11-26T12:27:38.718Z,78.86
2018-11-26T12:30:11.515Z,78.73
2018-11-26T12:32:40.050Z,79.04
2018-11-26T12:35:08.599Z,79.02
2018-11-26T12:37:37.139Z,79.62
2018-11-26T12:40:08.416Z,78.71
2018-11-26T12:42:37.052Z,79.12
2018-11-26T12:45:15.183Z,80.08
2018-11-26T12:47:43.762Z,79.23
2018-11-26T12:50:12.574Z,79.23
2018-11-26T12:52:41.146Z,79.54
2018-11-26T12:55:12.062Z,78.77
2018-11-26T12:57:41.642Z,79.11
2018-11-26T13:00:13.533Z,79.27
2018-11-26T13:02:42.086Z,79.45
2018-11-26T13:05:15.103Z,79.27
2018-11-26T13:07:43.673Z,79.17
2018-11-26T13:10:14.127Z,79.43
2018-11-26T13:12:42.767Z,79.26
2018-11-26T13:15:15.432Z,79.19
2018-11-26T13:17:44.016Z,78.72
2018-11-26T13:20:14.812Z,79.39
2018-11-26T13:22:43.459Z,79.79
2018-11-26T13:25:13.242Z,79.56
2018-11-26T13:27:43.535Z,79.21
2018-11-26T13:30:14.504Z,79.97
2018-11-26T13:32:43.868Z,79.83
2018-11-26T13:35:13.497Z,79.97
2018-11-26T13:37:42.059Z,80.15
2018-11-26T13:40:11.907Z,79.18
2018-11-26T13:42:40.551Z,79.45
2018-11-26T13:45:10.863Z,80.43
2018-11-26T13:47:39.523Z,80.79
2018-11-26T13:50:11.795Z,80.76
2018-11-26T13:52:40.311Z,80.88
2018-11-26T13:55:10.804Z,80.56
2018-11-26T13:57:39.376Z,80.52
2018-11-26T14:00:11.328Z,80.23
2018-11-26T14:02:39.874Z,80.98
2018-11-26T14:05:10.803Z,81.15
2018-11-26T14:07:39.348Z,80.30
2018-11-26T14:10:11.275Z,81.12
2018-11-26T14:12:40.111Z,81.06
2018-11-26T14:15:10.520Z,81.07
2018-11-26T14:17:39.091Z,81.66
2018-11-26T14:20:11.238Z,81.40
2018-11-26T14:22:39.800Z,81.21
2018-11-26T14:25:11.924Z,81.32
2018-11-26T14:27:41.054Z,80.91
2018-11-26T14:30:16.698Z,81.52
2018-11-26T14:32:45.254Z,81.64
2018-11-26T14:35:13.771Z,81.96
2018-11-26T14:37:42.368Z,82.24
2018-11-26T14:40:13.443Z,81.90
2018-11-26T14:42:41.998Z,81.46
2018-11-26T14:45:12.346Z,81.27
2018-11-26T14:47:40.907Z,81.03
2018-11-26T14:50:12.408Z,81.77
2018-11-26T14:52:41.340Z,81.50
2018-11-26T14:55:14.994Z,81.23
2018-11-26T14:57:44.112Z,81.29
2018-11-26T15:00:16.529Z,82.09
2018-11-26T15:02:45.238Z,81.85
2018-11-26T15:05:14.019Z,82.25
2018-11-26T15:07:42.535Z,81.79
2018-11-26T15:10:13.275Z,82.65
2018-11-26T15:12:41.886Z,82.11
2018-11-26T15:15:12.809Z,82.69
2018-11-26T15:17:42.252Z,82.68
2018-11-26T15:20:20.257Z,82.99
2018-11-26T15:22:49.166Z,82.96
2018-11-26T15:25:20.669Z,82.48
2018-11-26T15:27:49.284Z,82.72
2018-11-26T15:30:19.367Z,83.36
2018-11-26T15:32:48.029Z,83.36
2018-11-26T15:35:19.809Z,83.68
2018-11-26T15:37:48.414Z,83.52
2018-11-26T15:40:18.108Z,82.76
2018-11-26T15:42:46.650Z,83.28
2018-11-26T15:45:19.157Z,83.80
2018-11-26T15:47:48.232Z,83.38
2018-11-26T15:50:16.766Z,84.68
2018-11-26T15:52:45.319Z,84.56
2018-11-26T15:55:14.987Z,84.63
2018-11-26T15:57:43.528Z,84.89
2018-11-26T16:00:16.133Z,84.82
2018-11-26T16:02:45.047Z,84.54
2018-11-26T16:05:19.135Z,84.85
2018-11-26T16:07:48.300Z,84.58
2018-11-26T16:10:16.931Z,85.19
2018-11-26T16:12:46.741Z,85.41
2018-11-26T16:15:18.012Z,85.53
2018-11-26T16:17:46.552Z,85.07
2018-11-26T16:20:17.441Z,85.94
2018-11-26T16:22:45.968Z,85.68
2018-11-26T16:25:15.980Z,85.60
2018-11-26T16:27:44.618Z,85.81
2018-11-26T16:30:14.267Z,85.67
2018-11-26T16:32:44.117Z,84.76
2018-11-26T16:35:14.263Z,84.94
2018-11-26T16:37:42.790Z,85.61
2018-11-26T16:40:14.890Z,85.06
2018-11-26T16:42:43.439Z,85.38
2018-11-26T16:45:13.511Z,85.07
2018-11-26T16:47:42.093Z,84.80
2018-11-26T16:50:12.374Z,84.57
2018-11-26T16:52:40.959Z,84.67
2018-11-26T16:55:12.617Z,84.58
2018-11-26T16:57:41.410Z,84.70
2018-11-26T17:00:20.056Z,84.01
2018-11-26T17:02:49.664Z,83.61
2018-11-26T17:05:22.638Z,84.05
2018-11-26T17:07:51.257Z,84.41
2018-11-26T17:10:20.010Z,84.13
2018-11-26T17:12:48.514Z,84.52
2018-11-26T17:15:17.886Z,84.41
2018-11-26T17:17:46.672Z,84.05
2018-11-26T17:20:16.175Z,83.92
2018-11-26T17:22:44.811Z,84.00
2018-11-26T17:25:14.591Z,83.76
2018-11-26T17:27:43.731Z,83.95
2018-11-26T17:30:22.526Z,83.66
2018-11-26T17:32:56.114Z,83.57
2018-11-26T17:35:24.748Z,84.03
2018-11-26T17:37:53.266Z,83.58
2018-11-26T17:40:23.784Z,84.11
2018-11-26T17:42:52.753Z,84.11
2018-11-26T17:45:22.339Z,83.87
2018-11-26T17:47:52.201Z,84.63
2018-11-26T17:50:39.065Z,84.42
2018-11-26T17:53:09.902Z,83.90
2018-11-26T17:55:56.654Z,83.99
2018-11-26T17:58:26.627Z,84.76
2018-11-26T18:01:04.545Z,84.92
2018-11-26T18:03:33.131Z,84.45
2018-11-26T18:06:01.669Z,84.26
2018-11-26T18:08:30.259Z,84.33
2018-11-26T18:10:58.918Z,84.13
2018-11-26T18:13:27.447Z,83.21
2018-11-26T18:15:55.975Z,83.46
2018-11-26T18:18:24.518Z,84.17
2018-11-26T18:20:53.047Z,84.24
2018-11-26T18:23:21.641Z,84.41
2018-11-26T18:25:50.172Z,84.39
2018-11-26T18:28:18.784Z,84.45
2018-11-26T18:30:49.611Z,84.64
2018-11-26T18:33:18.201Z,83.81
2018-11-26T18:35:48.540Z,83.86
2018-11-26T18:38:17.502Z,84.19
2018-11-26T18:40:47.680Z,84.04
2018-11-26T18:43:16.542Z,84.46
2018-11-26T18:45:45.295Z,83.84
2018-11-26T18:48:14.912Z,84.04
2018-11-26T18:50:43.819Z,83.25
2018-11-26T18:53:12.733Z,84.11
2018-11-26T18:55:42.300Z,82.99
2018-11-26T18:58:10.868Z,83.20
2018-11-26T19:00:44.726Z,83.17
2018-11-26T19:03:17.739Z,83.46
2018-11-26T19:05:46.831Z,83.88
2018-11-26T19:08:15.641Z,83.89
2018-11-26T19:10:44.552Z,83.44
2018-11-26T19:13:15.868Z,84.04
2018-11-26T19:15:46.187Z,83.26
2018-11-26T19:18:21.655Z,83.86
2018-11-26T19:20:50.244Z,83.74
2018-11-26T19:23:18.804Z,83.52
2018-11-26T19:25:48.451Z,83.47
2018-11-26T19:28:20.504Z,84.11
2018-11-26T19:30:45.572Z,83.91
2018-11-26T19:33:14.143Z,83.79
2018-11-26T19:35:42.692Z,83.63
2018-11-26T19:38:11.245Z,83.48
2018-11-26T19:40:40.682Z,84.05
2018-11-26T19:43:09.954Z,84.14
2018-11-26T19:45:39.060Z,84.05
2018-11-26T19:48:08.588Z,84.58
2018-11-26T19:50:37.216Z,84.61
2018-11-26T19:53:08.212Z,84.09
2018-11-26T19:55:36.862Z,84.46
2018-11-26T19:58:06.561Z,84.04
2018-11-26T20:00:36.744Z,83.49
2018-11-26T20:03:18.915Z,83.78
2018-11-26T20:05:56.749Z,83.49
2018-11-26T20:08:25.478Z,83.22
2018-11-26T20:10:54.133Z,83.34
2018-11-26T20:13:22.789Z,84.15
2018-11-26T20:15:52.839Z,83.89
2018-11-26T20:18:20.294Z,83.42
2018-11-26T20:20:48.860Z,83.62
2018-11-26T20:23:17.467Z,82.67
2018-11-26T20:25:46.282Z,82.98
2018-11-26T20:28:14.711Z,83.29
2018-11-26T20:30:43.302Z,83.64
2018-11-26T20:33:11.814Z,82.65
2018-11-26T20:35:40.361Z,82.08
2018-11-26T20:38:10.444Z,82.58
2018-11-26T20:40:39.027Z,82.07
2018-11-26T20:43:09.575Z,82.07
2018-11-26T20:45:39.383Z,82.69
2018-11-26T20:48:08.700Z,82.12
2018-11-26T20:50:37.379Z,82.12
2018-11-26T20:53:06.064Z,81.43
2018-11-26T20:55:34.631Z,81.31
2018-11-26T20:58:09.544Z,81.32
2018-11-26T21:00:38.155Z,81.60
2018-11-26T21:03:09.320Z,80.95
2018-11-26T21:05:38.275Z,81.64
2018-11-26T21:08:06.855Z,81.19
2018-11-26T21:10:35.439Z,82.07
2018-11-26T21:13:04.040Z,81.57
2018-11-26T21:15:32.738Z,81.76
2018-11-26T21:18:03.559Z,79.38
2018-11-26T21:20:36.923Z,78.08
2018-11-26T21:23:08.283Z,76.62
2018-11-26T21:25:36.812Z,76.89
2018-11-26T21:28:06.152Z,76.57
2018-11-26T21:30:34.727Z,76.37
2018-11-26T21:33:03.317Z,76.55
2018-11-26T21:35:31.949Z,76.83
2018-11-26T21:38:00.506Z,77.00
2018-11-26T21:40:29.025Z,76.68
2018-11-26T21:42:57.608Z,77.03
2018-11-26T21:45:28.143Z,76.06
2018-11-26T21:47:56.700Z,76.44
2018-11-26T21:50:25.270Z,76.65
2018-11-26T21:52:53.803Z,76.41
2018-11-26T21:58:03.884Z,76.70
2018-11-26T22:00:32.962Z,76.71
2018-11-26T22:03:07.420Z,76.26
2018-11-26T22:05:36.691Z,75.61
2018-11-26T22:08:05.468Z,76.18
2018-11-26T22:10:34.032Z,75.65
2018-11-26T22:13:02.559Z,76.09
2018-11-26T22:15:31.083Z,75.58
2018-11-26T22:17:59.771Z,75.43
2018-11-26T22:20:29.608Z,75.07
2018-11-26T22:22:58.189Z,75.51
2018-11-26T22:25:26.755Z,75.41
2018-11-26T22:27:55.679Z,75.90
2018-11-26T22:30:32.642Z,75.82
2018-11-26T22:33:01.195Z,75.23
2018-11-26T22:35:29.760Z,75.64
2018-11-26T22:37:58.400Z,74.97
2018-11-26T22:40:27.305Z,76.27
2018-11-26T22:42:55.901Z,75.70
2018-11-26T22:45:28.331Z,75.54
2018-11-26T22:48:01.335Z,75.19
2018-11-26T22:50:29.883Z,75.06
2018-11-26T22:52:58.392Z,75.18
2018-11-26T22:55:26.908Z,74.67
2018-11-26T22:57:55.475Z,75.64
2018-11-26T23:00:27.386Z,75.54
2018-11-26T23:02:58.925Z,75.25
2018-11-26T23:05:27.620Z,74.74
2018-11-26T23:07:56.153Z,74.79
2018-11-26T23:10:24.738Z,74.39
2018-11-26T23:12:53.271Z,74.89
2018-11-26T23:15:22.053Z,74.40
2018-11-26T23:17:51.297Z,75.48
2018-11-26T23:20:21.401Z,75.07
2018-11-26T23:22:49.936Z,75.37
2018-11-26T23:25:19.863Z,75.02
2018-11-26T23:27:48.410Z,75.17
2018-11-26T23:30:20.951Z,75.14
2018-11-26T23:32:50.779Z,74.92
2018-11-26T23:35:19.383Z,74.85
2018-11-26T23:37:48.042Z,75.23
2018-11-26T23:40:16.669Z,76.15
2018-11-26T23:42:45.270Z,75.93
2018-11-26T23:45:17.928Z,75.37
2018-11-26T23:47:46.823Z,75.42
2018-11-26T23:50:16.150Z,75.20
2018-11-26T23:52:45.178Z,74.42
2018-11-26T23:55:15.725Z,75.32
2018-11-26T23:57:44.335Z,75.05
